sensor_id;sensor_type;location;lat;lon;timestamp;P1;durP1;ratioP1;P2;durP2;ratioP2
30647;SDS011;17683;53.360;9.736;2023-08-08T00:00:37;7.75;;;2.15;;
30647;SDS011;17683;53.360;9.736;2023-08-08T00:03:03;10.48;;;2.83;;
30647;SDS011;17683;53.360;9.736;2023-08-08T00:05:29;10.05;;;2.47;;
30647;SDS011;17683;53.360;9.736;2023-08-08T00:07:55;4.75;;;2.33;;
30647;SDS011;17683;53.360;9.736;2023-08-08T00:10:20;7.82;;;3.30;;
30647;SDS011;17683;53.360;9.736;2023-08-08T00:12:46;7.05;;;2.15;;
30647;SDS011;17683;53.360;9.736;2023-08-08T00:15:12;5.43;;;2.22;;
30647;SDS011;17683;53.360;9.736;2023-08-08T00:17:38;7.22;;;2.72;;
30647;SDS011;17683;53.360;9.736;2023-08-08T00:20:03;4.65;;;2.42;;
30647;SDS011;17683;53.360;9.736;2023-08-08T00:22:30;7.32;;;3.22;;
30647;SDS011;17683;53.360;9.736;2023-08-08T00:24:55;6.70;;;3.10;;
30647;SDS011;17683;53.360;9.736;2023-08-08T00:27:21;6.18;;;2.72;;
30647;SDS011;17683;53.360;9.736;2023-08-08T00:29:47;6.65;;;2.63;;
30647;SDS011;17683;53.360;9.736;2023-08-08T00:32:13;6.32;;;2.80;;
30647;SDS011;17683;53.360;9.736;2023-08-08T00:34:39;10.05;;;3.03;;
30647;SDS011;17683;53.360;9.736;2023-08-08T00:37:04;6.63;;;2.88;;
30647;SDS011;17683;53.360;9.736;2023-08-08T00:39:30;9.02;;;2.65;;
30647;SDS011;17683;53.360;9.736;2023-08-08T00:41:56;14.32;;;3.17;;
30647;SDS011;17683;53.360;9.736;2023-08-08T00:44:22;5.32;;;2.33;;
30647;SDS011;17683;53.360;9.736;2023-08-08T00:46:48;6.20;;;2.58;;
30647;SDS011;17683;53.360;9.736;2023-08-08T00:49:13;6.38;;;2.40;;
30647;SDS011;17683;53.360;9.736;2023-08-08T00:51:40;7.45;;;2.58;;
30647;SDS011;17683;53.360;9.736;2023-08-08T00:54:06;9.45;;;2.70;;
30647;SDS011;17683;53.360;9.736;2023-08-08T00:56:32;13.02;;;2.88;;
30647;SDS011;17683;53.360;9.736;2023-08-08T00:58:58;4.10;;;2.30;;
30647;SDS011;17683;53.360;9.736;2023-08-08T01:01:24;7.43;;;3.05;;
30647;SDS011;17683;53.360;9.736;2023-08-08T01:03:50;7.20;;;2.40;;
30647;SDS011;17683;53.360;9.736;2023-08-08T01:06:26;3.90;;;2.50;;
30647;SDS011;17683;53.360;9.736;2023-08-08T01:09:00;5.65;;;2.30;;
30647;SDS011;17683;53.360;9.736;2023-08-08T01:11:34;5.28;;;2.33;;
30647;SDS011;17683;53.360;9.736;2023-08-08T01:14:02;6.65;;;2.40;;
30647;SDS011;17683;53.360;9.736;2023-08-08T01:16:31;4.90;;;2.22;;
30647;SDS011;17683;53.360;9.736;2023-08-08T01:18:57;4.53;;;2.08;;
30647;SDS011;17683;53.360;9.736;2023-08-08T01:21:25;6.75;;;2.60;;
30647;SDS011;17683;53.360;9.736;2023-08-08T01:24:37;9.02;;;2.58;;
30647;SDS011;17683;53.360;9.736;2023-08-08T01:26:48;6.43;;;2.25;;
30647;SDS011;17683;53.360;9.736;2023-08-08T01:29:15;6.20;;;2.30;;
30647;SDS011;17683;53.360;9.736;2023-08-08T01:31:41;6.15;;;2.50;;
30647;SDS011;17683;53.360;9.736;2023-08-08T01:34:06;8.80;;;2.88;;
30647;SDS011;17683;53.360;9.736;2023-08-08T01:36:39;5.55;;;2.33;;
30647;SDS011;17683;53.360;9.736;2023-08-08T01:39:14;6.93;;;2.63;;
30647;SDS011;17683;53.360;9.736;2023-08-08T01:41:45;6.38;;;2.13;;
30647;SDS011;17683;53.360;9.736;2023-08-08T01:44:13;6.53;;;1.70;;
30647;SDS011;17683;53.360;9.736;2023-08-08T01:46:40;5.53;;;2.28;;
30647;SDS011;17683;53.360;9.736;2023-08-08T01:49:06;5.03;;;2.08;;
30647;SDS011;17683;53.360;9.736;2023-08-08T01:51:32;6.53;;;2.38;;
30647;SDS011;17683;53.360;9.736;2023-08-08T01:53:57;4.47;;;2.10;;
30647;SDS011;17683;53.360;9.736;2023-08-08T01:56:23;7.13;;;2.00;;
30647;SDS011;17683;53.360;9.736;2023-08-08T01:58:49;7.80;;;1.98;;
30647;SDS011;17683;53.360;9.736;2023-08-08T02:01:15;5.88;;;2.03;;
30647;SDS011;17683;53.360;9.736;2023-08-08T02:03:41;6.18;;;1.80;;
30647;SDS011;17683;53.360;9.736;2023-08-08T02:06:06;10.63;;;2.30;;
30647;SDS011;17683;53.360;9.736;2023-08-08T02:08:32;6.30;;;2.10;;
30647;SDS011;17683;53.360;9.736;2023-08-08T02:10:58;6.15;;;2.47;;
30647;SDS011;17683;53.360;9.736;2023-08-08T02:13:24;4.82;;;2.30;;
30647;SDS011;17683;53.360;9.736;2023-08-08T02:15:50;4.72;;;1.73;;
30647;SDS011;17683;53.360;9.736;2023-08-08T02:18:15;6.10;;;2.40;;
30647;SDS011;17683;53.360;9.736;2023-08-08T02:20:41;6.32;;;2.03;;
30647;SDS011;17683;53.360;9.736;2023-08-08T02:23:07;3.72;;;2.13;;
30647;SDS011;17683;53.360;9.736;2023-08-08T02:25:33;6.57;;;1.90;;
30647;SDS011;17683;53.360;9.736;2023-08-08T02:27:59;5.35;;;2.72;;
30647;SDS011;17683;53.360;9.736;2023-08-08T02:30:24;5.78;;;1.95;;
30647;SDS011;17683;53.360;9.736;2023-08-08T02:32:50;6.95;;;2.33;;
30647;SDS011;17683;53.360;9.736;2023-08-08T02:35:16;4.70;;;1.92;;
30647;SDS011;17683;53.360;9.736;2023-08-08T02:37:42;4.63;;;2.42;;
30647;SDS011;17683;53.360;9.736;2023-08-08T02:40:08;5.47;;;2.38;;
30647;SDS011;17683;53.360;9.736;2023-08-08T02:42:34;3.78;;;2.28;;
30647;SDS011;17683;53.360;9.736;2023-08-08T02:45:00;7.22;;;2.35;;
30647;SDS011;17683;53.360;9.736;2023-08-08T02:47:26;8.10;;;2.30;;
30647;SDS011;17683;53.360;9.736;2023-08-08T02:49:52;6.72;;;2.55;;
30647;SDS011;17683;53.360;9.736;2023-08-08T02:52:18;7.03;;;1.90;;
30647;SDS011;17683;53.360;9.736;2023-08-08T02:54:44;5.05;;;2.00;;
30647;SDS011;17683;53.360;9.736;2023-08-08T02:57:09;4.50;;;2.47;;
30647;SDS011;17683;53.360;9.736;2023-08-08T02:59:36;5.25;;;2.50;;
30647;SDS011;17683;53.360;9.736;2023-08-08T03:02:03;3.75;;;2.10;;
30647;SDS011;17683;53.360;9.736;2023-08-08T03:04:29;8.32;;;2.05;;
30647;SDS011;17683;53.360;9.736;2023-08-08T03:06:55;4.97;;;2.03;;
30647;SDS011;17683;53.360;9.736;2023-08-08T03:09:20;4.47;;;2.33;;
30647;SDS011;17683;53.360;9.736;2023-08-08T03:11:46;2.70;;;1.98;;
30647;SDS011;17683;53.360;9.736;2023-08-08T03:14:12;3.45;;;2.28;;
30647;SDS011;17683;53.360;9.736;2023-08-08T03:16:38;4.57;;;2.35;;
30647;SDS011;17683;53.360;9.736;2023-08-08T03:19:04;5.82;;;2.13;;
30647;SDS011;17683;53.360;9.736;2023-08-08T03:21:30;6.63;;;1.95;;
30647;SDS011;17683;53.360;9.736;2023-08-08T03:23:56;5.75;;;2.33;;
30647;SDS011;17683;53.360;9.736;2023-08-08T03:26:22;6.90;;;2.30;;
30647;SDS011;17683;53.360;9.736;2023-08-08T03:28:48;2.50;;;1.77;;
30647;SDS011;17683;53.360;9.736;2023-08-08T03:31:15;2.83;;;1.73;;
30647;SDS011;17683;53.360;9.736;2023-08-08T03:33:42;4.47;;;2.33;;
30647;SDS011;17683;53.360;9.736;2023-08-08T03:36:08;6.60;;;2.00;;
30647;SDS011;17683;53.360;9.736;2023-08-08T03:38:34;7.43;;;2.03;;
30647;SDS011;17683;53.360;9.736;2023-08-08T03:41:00;4.50;;;2.05;;
30647;SDS011;17683;53.360;9.736;2023-08-08T03:43:26;4.78;;;2.03;;
30647;SDS011;17683;53.360;9.736;2023-08-08T03:45:52;15.57;;;2.58;;
30647;SDS011;17683;53.360;9.736;2023-08-08T03:48:17;6.50;;;2.28;;
30647;SDS011;17683;53.360;9.736;2023-08-08T03:50:43;3.75;;;2.35;;
30647;SDS011;17683;53.360;9.736;2023-08-08T03:53:09;3.05;;;2.17;;
30647;SDS011;17683;53.360;9.736;2023-08-08T03:55:34;5.18;;;1.73;;
30647;SDS011;17683;53.360;9.736;2023-08-08T03:58:00;2.90;;;1.70;;
30647;SDS011;17683;53.360;9.736;2023-08-08T04:00:26;2.53;;;2.10;;
30647;SDS011;17683;53.360;9.736;2023-08-08T04:02:51;4.60;;;1.70;;
30647;SDS011;17683;53.360;9.736;2023-08-08T04:05:17;7.35;;;2.05;;
30647;SDS011;17683;53.360;9.736;2023-08-08T04:07:43;4.22;;;2.50;;
30647;SDS011;17683;53.360;9.736;2023-08-08T04:10:09;4.13;;;2.08;;
30647;SDS011;17683;53.360;9.736;2023-08-08T04:12:35;6.20;;;2.40;;
30647;SDS011;17683;53.360;9.736;2023-08-08T04:15:00;5.45;;;1.80;;
30647;SDS011;17683;53.360;9.736;2023-08-08T04:17:26;4.40;;;2.28;;
30647;SDS011;17683;53.360;9.736;2023-08-08T04:19:52;6.30;;;1.90;;
30647;SDS011;17683;53.360;9.736;2023-08-08T04:22:17;5.45;;;2.67;;
30647;SDS011;17683;53.360;9.736;2023-08-08T04:24:43;4.72;;;1.95;;
30647;SDS011;17683;53.360;9.736;2023-08-08T04:27:09;4.50;;;1.95;;
30647;SDS011;17683;53.360;9.736;2023-08-08T04:29:35;4.57;;;2.10;;
30647;SDS011;17683;53.360;9.736;2023-08-08T04:32:01;2.83;;;2.08;;
30647;SDS011;17683;53.360;9.736;2023-08-08T04:34:27;7.32;;;2.95;;
30647;SDS011;17683;53.360;9.736;2023-08-08T04:36:52;7.00;;;3.10;;
30647;SDS011;17683;53.360;9.736;2023-08-08T04:39:18;11.45;;;3.03;;
30647;SDS011;17683;53.360;9.736;2023-08-08T04:41:44;6.53;;;2.00;;
30647;SDS011;17683;53.360;9.736;2023-08-08T04:44:09;5.43;;;2.55;;
30647;SDS011;17683;53.360;9.736;2023-08-08T04:46:35;5.63;;;2.15;;
30647;SDS011;17683;53.360;9.736;2023-08-08T04:49:01;5.30;;;2.33;;
30647;SDS011;17683;53.360;9.736;2023-08-08T04:51:27;6.82;;;2.20;;
30647;SDS011;17683;53.360;9.736;2023-08-08T04:53:52;4.53;;;2.15;;
30647;SDS011;17683;53.360;9.736;2023-08-08T04:56:18;2.95;;;1.85;;
30647;SDS011;17683;53.360;9.736;2023-08-08T04:58:43;17.30;;;2.78;;
30647;SDS011;17683;53.360;9.736;2023-08-08T05:01:10;6.90;;;2.03;;
30647;SDS011;17683;53.360;9.736;2023-08-08T05:03:39;3.33;;;1.70;;
30647;SDS011;17683;53.360;9.736;2023-08-08T05:06:05;7.38;;;2.10;;
30647;SDS011;17683;53.360;9.736;2023-08-08T05:08:30;2.60;;;1.70;;
30647;SDS011;17683;53.360;9.736;2023-08-08T05:10:56;4.93;;;2.00;;
30647;SDS011;17683;53.360;9.736;2023-08-08T05:13:22;6.13;;;1.98;;
30647;SDS011;17683;53.360;9.736;2023-08-08T05:15:48;3.25;;;1.42;;
30647;SDS011;17683;53.360;9.736;2023-08-08T05:18:13;3.75;;;2.00;;
30647;SDS011;17683;53.360;9.736;2023-08-08T05:20:39;1.52;;;1.42;;
30647;SDS011;17683;53.360;9.736;2023-08-08T05:23:05;3.35;;;2.05;;
30647;SDS011;17683;53.360;9.736;2023-08-08T05:25:30;3.85;;;2.33;;
30647;SDS011;17683;53.360;9.736;2023-08-08T05:27:56;4.97;;;1.77;;
30647;SDS011;17683;53.360;9.736;2023-08-08T05:30:22;3.97;;;2.17;;
30647;SDS011;17683;53.360;9.736;2023-08-08T05:32:48;3.95;;;1.98;;
30647;SDS011;17683;53.360;9.736;2023-08-08T05:35:13;4.47;;;2.67;;
30647;SDS011;17683;53.360;9.736;2023-08-08T05:37:39;4.00;;;2.97;;
30647;SDS011;17683;53.360;9.736;2023-08-08T05:40:05;3.67;;;2.40;;
30647;SDS011;17683;53.360;9.736;2023-08-08T05:42:31;4.90;;;2.55;;
30647;SDS011;17683;53.360;9.736;2023-08-08T05:44:57;5.65;;;2.60;;
30647;SDS011;17683;53.360;9.736;2023-08-08T05:47:23;8.35;;;3.47;;
30647;SDS011;17683;53.360;9.736;2023-08-08T05:49:49;4.38;;;3.10;;
30647;SDS011;17683;53.360;9.736;2023-08-08T05:52:15;5.35;;;3.20;;
30647;SDS011;17683;53.360;9.736;2023-08-08T05:54:40;4.63;;;3.38;;
30647;SDS011;17683;53.360;9.736;2023-08-08T05:57:06;4.50;;;3.40;;
30647;SDS011;17683;53.360;9.736;2023-08-08T05:59:32;7.70;;;3.72;;
30647;SDS011;17683;53.360;9.736;2023-08-08T06:01:57;4.88;;;3.15;;
30647;SDS011;17683;53.360;9.736;2023-08-08T06:04:24;5.95;;;4.45;;
30647;SDS011;17683;53.360;9.736;2023-08-08T06:06:50;6.93;;;3.35;;
30647;SDS011;17683;53.360;9.736;2023-08-08T06:09:15;4.45;;;3.55;;
30647;SDS011;17683;53.360;9.736;2023-08-08T06:11:42;4.43;;;2.78;;
30647;SDS011;17683;53.360;9.736;2023-08-08T06:14:08;5.18;;;2.83;;
30647;SDS011;17683;53.360;9.736;2023-08-08T06:16:34;4.65;;;2.72;;
30647;SDS011;17683;53.360;9.736;2023-08-08T06:18:59;3.70;;;2.97;;
30647;SDS011;17683;53.360;9.736;2023-08-08T06:21:25;4.10;;;2.40;;
30647;SDS011;17683;53.360;9.736;2023-08-08T06:23:51;6.85;;;3.05;;
30647;SDS011;17683;53.360;9.736;2023-08-08T06:26:19;4.60;;;1.83;;
30647;SDS011;17683;53.360;9.736;2023-08-08T06:28:46;4.95;;;2.30;;
30647;SDS011;17683;53.360;9.736;2023-08-08T06:31:12;3.00;;;2.17;;
30647;SDS011;17683;53.360;9.736;2023-08-08T06:33:39;8.48;;;3.03;;
30647;SDS011;17683;53.360;9.736;2023-08-08T06:36:05;3.47;;;2.15;;
30647;SDS011;17683;53.360;9.736;2023-08-08T06:38:31;6.05;;;2.33;;
30647;SDS011;17683;53.360;9.736;2023-08-08T06:41:00;3.75;;;2.22;;
30647;SDS011;17683;53.360;9.736;2023-08-08T06:43:27;6.38;;;3.17;;
30647;SDS011;17683;53.360;9.736;2023-08-08T06:45:53;3.60;;;2.65;;
30647;SDS011;17683;53.360;9.736;2023-08-08T06:48:19;5.68;;;3.47;;
30647;SDS011;17683;53.360;9.736;2023-08-08T06:50:44;5.03;;;2.88;;
30647;SDS011;17683;53.360;9.736;2023-08-08T06:53:10;5.53;;;2.90;;
30647;SDS011;17683;53.360;9.736;2023-08-08T06:55:36;12.45;;;3.13;;
30647;SDS011;17683;53.360;9.736;2023-08-08T06:58:01;6.30;;;2.33;;
30647;SDS011;17683;53.360;9.736;2023-08-08T07:00:28;8.18;;;2.60;;
30647;SDS011;17683;53.360;9.736;2023-08-08T07:02:54;5.00;;;2.20;;
30647;SDS011;17683;53.360;9.736;2023-08-08T07:05:20;4.03;;;1.67;;
30647;SDS011;17683;53.360;9.736;2023-08-08T07:07:48;6.13;;;2.50;;
30647;SDS011;17683;53.360;9.736;2023-08-08T07:10:17;8.60;;;2.65;;
30647;SDS011;17683;53.360;9.736;2023-08-08T07:12:44;4.68;;;2.42;;
30647;SDS011;17683;53.360;9.736;2023-08-08T07:15:10;5.40;;;2.30;;
30647;SDS011;17683;53.360;9.736;2023-08-08T07:17:36;7.32;;;2.15;;
30647;SDS011;17683;53.360;9.736;2023-08-08T07:20:02;6.25;;;2.33;;
30647;SDS011;17683;53.360;9.736;2023-08-08T07:22:30;5.97;;;2.20;;
30647;SDS011;17683;53.360;9.736;2023-08-08T07:24:57;4.88;;;2.60;;
30647;SDS011;17683;53.360;9.736;2023-08-08T07:27:23;10.18;;;3.10;;
30647;SDS011;17683;53.360;9.736;2023-08-08T07:29:48;5.95;;;2.20;;
30647;SDS011;17683;53.360;9.736;2023-08-08T07:32:14;7.03;;;2.70;;
30647;SDS011;17683;53.360;9.736;2023-08-08T07:34:40;8.95;;;2.28;;
30647;SDS011;17683;53.360;9.736;2023-08-08T07:37:06;5.80;;;2.78;;
30647;SDS011;17683;53.360;9.736;2023-08-08T07:39:31;7.78;;;2.88;;
30647;SDS011;17683;53.360;9.736;2023-08-08T07:41:57;8.75;;;2.75;;
30647;SDS011;17683;53.360;9.736;2023-08-08T07:44:23;7.88;;;2.28;;
30647;SDS011;17683;53.360;9.736;2023-08-08T07:46:48;9.68;;;2.72;;
30647;SDS011;17683;53.360;9.736;2023-08-08T07:49:14;10.15;;;2.30;;
30647;SDS011;17683;53.360;9.736;2023-08-08T07:51:40;13.32;;;2.90;;
30647;SDS011;17683;53.360;9.736;2023-08-08T07:54:06;6.50;;;2.40;;
30647;SDS011;17683;53.360;9.736;2023-08-08T07:56:33;6.00;;;2.70;;
30647;SDS011;17683;53.360;9.736;2023-08-08T07:59:00;5.97;;;2.35;;
30647;SDS011;17683;53.360;9.736;2023-08-08T08:01:26;8.73;;;2.38;;
30647;SDS011;17683;53.360;9.736;2023-08-08T08:03:52;5.07;;;2.53;;
30647;SDS011;17683;53.360;9.736;2023-08-08T08:06:18;5.75;;;2.22;;
30647;SDS011;17683;53.360;9.736;2023-08-08T08:08:44;9.10;;;2.67;;
30647;SDS011;17683;53.360;9.736;2023-08-08T08:11:10;6.22;;;2.03;;
30647;SDS011;17683;53.360;9.736;2023-08-08T08:13:37;4.03;;;2.13;;
30647;SDS011;17683;53.360;9.736;2023-08-08T08:16:03;7.93;;;2.53;;
30647;SDS011;17683;53.360;9.736;2023-08-08T08:18:29;4.63;;;2.17;;
30647;SDS011;17683;53.360;9.736;2023-08-08T08:20:55;4.53;;;1.88;;
30647;SDS011;17683;53.360;9.736;2023-08-08T08:23:21;3.22;;;1.80;;
30647;SDS011;17683;53.360;9.736;2023-08-08T08:25:47;3.80;;;1.80;;
30647;SDS011;17683;53.360;9.736;2023-08-08T08:28:15;2.13;;;1.20;;
30647;SDS011;17683;53.360;9.736;2023-08-08T08:30:41;3.05;;;1.30;;
30647;SDS011;17683;53.360;9.736;2023-08-08T08:33:06;5.28;;;1.20;;
30647;SDS011;17683;53.360;9.736;2023-08-08T08:35:33;2.75;;;1.10;;
30647;SDS011;17683;53.360;9.736;2023-08-08T08:37:59;2.15;;;1.08;;
30647;SDS011;17683;53.360;9.736;2023-08-08T08:40:26;2.33;;;1.00;;
30647;SDS011;17683;53.360;9.736;2023-08-08T08:42:53;1.83;;;0.90;;
30647;SDS011;17683;53.360;9.736;2023-08-08T08:45:20;2.20;;;1.10;;
30647;SDS011;17683;53.360;9.736;2023-08-08T08:47:48;2.75;;;1.33;;
30647;SDS011;17683;53.360;9.736;2023-08-08T08:50:16;4.97;;;0.95;;
30647;SDS011;17683;53.360;9.736;2023-08-08T08:52:43;4.78;;;1.20;;
30647;SDS011;17683;53.360;9.736;2023-08-08T08:55:09;2.40;;;1.27;;
30647;SDS011;17683;53.360;9.736;2023-08-08T08:57:36;3.35;;;1.55;;
30647;SDS011;17683;53.360;9.736;2023-08-08T09:00:03;2.20;;;0.93;;
30647;SDS011;17683;53.360;9.736;2023-08-08T09:02:31;1.15;;;1.00;;
30647;SDS011;17683;53.360;9.736;2023-08-08T09:04:57;3.28;;;1.27;;
30647;SDS011;17683;53.360;9.736;2023-08-08T09:07:24;2.55;;;0.90;;
30647;SDS011;17683;53.360;9.736;2023-08-08T09:09:52;5.63;;;1.33;;
30647;SDS011;17683;53.360;9.736;2023-08-08T09:12:18;2.13;;;1.30;;
30647;SDS011;17683;53.360;9.736;2023-08-08T09:14:44;2.85;;;1.20;;
30647;SDS011;17683;53.360;9.736;2023-08-08T09:17:10;5.65;;;1.80;;
30647;SDS011;17683;53.360;9.736;2023-08-08T09:19:37;3.00;;;1.35;;
30647;SDS011;17683;53.360;9.736;2023-08-08T09:22:04;3.75;;;1.10;;
30647;SDS011;17683;53.360;9.736;2023-08-08T09:24:29;4.50;;;1.13;;
30647;SDS011;17683;53.360;9.736;2023-08-08T09:26:55;2.25;;;1.30;;
30647;SDS011;17683;53.360;9.736;2023-08-08T09:29:21;3.40;;;1.10;;
30647;SDS011;17683;53.360;9.736;2023-08-08T09:31:46;4.70;;;1.35;;
30647;SDS011;17683;53.360;9.736;2023-08-08T09:34:13;5.10;;;1.40;;
30647;SDS011;17683;53.360;9.736;2023-08-08T09:36:39;4.93;;;1.50;;
30647;SDS011;17683;53.360;9.736;2023-08-08T09:39:05;2.60;;;1.30;;
30647;SDS011;17683;53.360;9.736;2023-08-08T09:41:32;8.50;;;2.20;;
30647;SDS011;17683;53.360;9.736;2023-08-08T09:43:58;3.13;;;1.30;;
30647;SDS011;17683;53.360;9.736;2023-08-08T09:46:24;7.10;;;1.50;;
30647;SDS011;17683;53.360;9.736;2023-08-08T09:48:50;4.45;;;1.38;;
30647;SDS011;17683;53.360;9.736;2023-08-08T09:51:16;3.67;;;1.50;;
30647;SDS011;17683;53.360;9.736;2023-08-08T09:53:42;5.32;;;2.58;;
30647;SDS011;17683;53.360;9.736;2023-08-08T09:56:09;2.83;;;1.10;;
30647;SDS011;17683;53.360;9.736;2023-08-08T09:58:35;4.53;;;2.05;;
30647;SDS011;17683;53.360;9.736;2023-08-08T10:01:01;6.72;;;1.50;;
30647;SDS011;17683;53.360;9.736;2023-08-08T10:03:29;6.15;;;1.50;;
30647;SDS011;17683;53.360;9.736;2023-08-08T10:05:56;5.22;;;1.48;;
30647;SDS011;17683;53.360;9.736;2023-08-08T10:08:21;11.48;;;1.67;;
30647;SDS011;17683;53.360;9.736;2023-08-08T10:10:48;5.72;;;1.92;;
30647;SDS011;17683;53.360;9.736;2023-08-08T10:13:19;2.60;;;1.25;;
30647;SDS011;17683;53.360;9.736;2023-08-08T10:15:49;6.17;;;1.20;;
30647;SDS011;17683;53.360;9.736;2023-08-08T10:18:16;2.72;;;1.40;;
30647;SDS011;17683;53.360;9.736;2023-08-08T10:20:43;3.33;;;1.60;;
30647;SDS011;17683;53.360;9.736;2023-08-08T10:23:10;2.80;;;1.25;;
30647;SDS011;17683;53.360;9.736;2023-08-08T10:25:36;5.40;;;1.25;;
30647;SDS011;17683;53.360;9.736;2023-08-08T10:28:08;2.42;;;1.30;;
30647;SDS011;17683;53.360;9.736;2023-08-08T10:30:45;2.13;;;1.20;;
30647;SDS011;17683;53.360;9.736;2023-08-08T10:33:19;2.92;;;1.00;;
30647;SDS011;17683;53.360;9.736;2023-08-08T10:36:04;2.75;;;1.00;;
30647;SDS011;17683;53.360;9.736;2023-08-08T10:39:05;3.50;;;1.23;;
30647;SDS011;17683;53.360;9.736;2023-08-08T10:41:25;4.75;;;1.23;;
30647;SDS011;17683;53.360;9.736;2023-08-08T10:43:53;4.60;;;1.00;;
30647;SDS011;17683;53.360;9.736;2023-08-08T10:46:53;2.90;;;1.40;;
30647;SDS011;17683;53.360;9.736;2023-08-08T10:49:11;2.72;;;0.85;;
30647;SDS011;17683;53.360;9.736;2023-08-08T10:51:43;1.55;;;1.23;;
30647;SDS011;17683;53.360;9.736;2023-08-08T10:54:22;3.75;;;1.17;;
30647;SDS011;17683;53.360;9.736;2023-08-08T10:56:55;2.17;;;1.20;;
30647;SDS011;17683;53.360;9.736;2023-08-08T10:59:25;1.88;;;1.00;;
30647;SDS011;17683;53.360;9.736;2023-08-08T11:01:53;4.03;;;1.17;;
30647;SDS011;17683;53.360;9.736;2023-08-08T11:04:22;3.47;;;1.10;;
30647;SDS011;17683;53.360;9.736;2023-08-08T11:06:49;5.38;;;1.70;;
30647;SDS011;17683;53.360;9.736;2023-08-08T11:09:17;4.30;;;1.00;;
30647;SDS011;17683;53.360;9.736;2023-08-08T11:11:43;4.65;;;1.33;;
30647;SDS011;17683;53.360;9.736;2023-08-08T11:14:13;2.67;;;1.05;;
30647;SDS011;17683;53.360;9.736;2023-08-08T11:16:40;3.22;;;1.02;;
30647;SDS011;17683;53.360;9.736;2023-08-08T11:19:06;3.65;;;1.20;;
30647;SDS011;17683;53.360;9.736;2023-08-08T11:21:33;2.90;;;1.02;;
30647;SDS011;17683;53.360;9.736;2023-08-08T11:24:04;2.80;;;1.00;;
30647;SDS011;17683;53.360;9.736;2023-08-08T11:26:31;3.65;;;0.88;;
30647;SDS011;17683;53.360;9.736;2023-08-08T11:28:59;2.75;;;1.10;;
30647;SDS011;17683;53.360;9.736;2023-08-08T11:31:25;4.78;;;1.15;;
30647;SDS011;17683;53.360;9.736;2023-08-08T11:33:52;3.38;;;1.10;;
30647;SDS011;17683;53.360;9.736;2023-08-08T11:36:19;1.40;;;0.77;;
30647;SDS011;17683;53.360;9.736;2023-08-08T11:38:47;5.30;;;1.50;;
30647;SDS011;17683;53.360;9.736;2023-08-08T11:41:13;2.58;;;1.23;;
30647;SDS011;17683;53.360;9.736;2023-08-08T11:43:41;2.47;;;1.10;;
30647;SDS011;17683;53.360;9.736;2023-08-08T11:46:13;5.75;;;1.52;;
30647;SDS011;17683;53.360;9.736;2023-08-08T11:48:40;5.78;;;1.20;;
30647;SDS011;17683;53.360;9.736;2023-08-08T11:51:06;5.57;;;2.17;;
30647;SDS011;17683;53.360;9.736;2023-08-08T11:53:34;7.75;;;1.92;;
30647;SDS011;17683;53.360;9.736;2023-08-08T11:56:01;4.75;;;1.40;;
30647;SDS011;17683;53.360;9.736;2023-08-08T11:58:28;4.60;;;1.50;;
30647;SDS011;17683;53.360;9.736;2023-08-08T12:00:55;4.63;;;1.48;;
30647;SDS011;17683;53.360;9.736;2023-08-08T12:03:22;3.22;;;1.42;;
30647;SDS011;17683;53.360;9.736;2023-08-08T12:05:50;6.68;;;1.48;;
30647;SDS011;17683;53.360;9.736;2023-08-08T12:08:19;5.57;;;1.48;;
30647;SDS011;17683;53.360;9.736;2023-08-08T12:10:48;6.53;;;1.50;;
30647;SDS011;17683;53.360;9.736;2023-08-08T12:13:22;6.03;;;1.55;;
30647;SDS011;17683;53.360;9.736;2023-08-08T12:15:52;4.18;;;0.85;;
30647;SDS011;17683;53.360;9.736;2023-08-08T12:18:18;3.22;;;1.17;;
30647;SDS011;17683;53.360;9.736;2023-08-08T12:20:44;5.00;;;1.00;;
30647;SDS011;17683;53.360;9.736;2023-08-08T12:23:11;3.60;;;1.13;;
30647;SDS011;17683;53.360;9.736;2023-08-08T12:25:37;7.45;;;1.55;;
30647;SDS011;17683;53.360;9.736;2023-08-08T12:28:04;6.63;;;1.20;;
30647;SDS011;17683;53.360;9.736;2023-08-08T12:30:30;2.95;;;0.93;;
30647;SDS011;17683;53.360;9.736;2023-08-08T12:32:56;5.50;;;1.30;;
30647;SDS011;17683;53.360;9.736;2023-08-08T12:35:22;4.72;;;1.67;;
30647;SDS011;17683;53.360;9.736;2023-08-08T12:37:51;6.07;;;1.40;;
30647;SDS011;17683;53.360;9.736;2023-08-08T12:40:17;4.18;;;1.30;;
30647;SDS011;17683;53.360;9.736;2023-08-08T12:42:43;4.97;;;1.60;;
30647;SDS011;17683;53.360;9.736;2023-08-08T12:45:08;6.35;;;1.33;;
30647;SDS011;17683;53.360;9.736;2023-08-08T12:47:35;5.32;;;1.80;;
30647;SDS011;17683;53.360;9.736;2023-08-08T12:50:03;4.55;;;1.33;;
30647;SDS011;17683;53.360;9.736;2023-08-08T12:52:30;4.65;;;1.30;;
30647;SDS011;17683;53.360;9.736;2023-08-08T12:54:55;6.95;;;1.33;;
30647;SDS011;17683;53.360;9.736;2023-08-08T12:57:21;4.38;;;1.42;;
30647;SDS011;17683;53.360;9.736;2023-08-08T12:59:46;2.67;;;1.35;;
30647;SDS011;17683;53.360;9.736;2023-08-08T13:02:14;6.15;;;1.90;;
30647;SDS011;17683;53.360;9.736;2023-08-08T13:04:40;8.77;;;2.05;;
30647;SDS011;17683;53.360;9.736;2023-08-08T13:07:05;3.80;;;1.65;;
30647;SDS011;17683;53.360;9.736;2023-08-08T13:09:32;6.47;;;1.40;;
30647;SDS011;17683;53.360;9.736;2023-08-08T13:11:58;4.25;;;1.52;;
30647;SDS011;17683;53.360;9.736;2023-08-08T13:14:23;5.47;;;1.05;;
30647;SDS011;17683;53.360;9.736;2023-08-08T13:16:49;4.30;;;1.80;;
30647;SDS011;17683;53.360;9.736;2023-08-08T13:19:15;6.85;;;1.20;;
30647;SDS011;17683;53.360;9.736;2023-08-08T13:21:44;5.20;;;1.52;;
30647;SDS011;17683;53.360;9.736;2023-08-08T13:24:10;3.60;;;1.30;;
30647;SDS011;17683;53.360;9.736;2023-08-08T13:26:38;3.55;;;1.52;;
30647;SDS011;17683;53.360;9.736;2023-08-08T13:29:04;8.25;;;1.48;;
30647;SDS011;17683;53.360;9.736;2023-08-08T13:31:30;4.65;;;1.17;;
30647;SDS011;17683;53.360;9.736;2023-08-08T13:33:55;5.78;;;1.30;;
30647;SDS011;17683;53.360;9.736;2023-08-08T13:36:21;5.25;;;1.48;;
30647;SDS011;17683;53.360;9.736;2023-08-08T13:38:47;5.72;;;1.25;;
30647;SDS011;17683;53.360;9.736;2023-08-08T13:41:12;6.55;;;1.80;;
30647;SDS011;17683;53.360;9.736;2023-08-08T13:43:38;7.18;;;1.70;;
30647;SDS011;17683;53.360;9.736;2023-08-08T13:46:04;3.88;;;1.58;;
30647;SDS011;17683;53.360;9.736;2023-08-08T13:48:33;4.20;;;1.73;;
30647;SDS011;17683;53.360;9.736;2023-08-08T13:50:59;9.07;;;1.52;;
30647;SDS011;17683;53.360;9.736;2023-08-08T13:53:25;4.65;;;1.55;;
30647;SDS011;17683;53.360;9.736;2023-08-08T13:55:51;9.40;;;1.52;;
30647;SDS011;17683;53.360;9.736;2023-08-08T13:58:16;8.27;;;1.42;;
30647;SDS011;17683;53.360;9.736;2023-08-08T14:00:42;7.07;;;1.45;;
30647;SDS011;17683;53.360;9.736;2023-08-08T14:03:08;9.20;;;1.80;;
30647;SDS011;17683;53.360;9.736;2023-08-08T14:05:34;6.25;;;1.50;;
30647;SDS011;17683;53.360;9.736;2023-08-08T14:08:02;5.65;;;1.25;;
30647;SDS011;17683;53.360;9.736;2023-08-08T14:10:27;5.90;;;1.60;;
30647;SDS011;17683;53.360;9.736;2023-08-08T14:12:53;4.32;;;1.55;;
30647;SDS011;17683;53.360;9.736;2023-08-08T14:15:19;7.75;;;2.38;;
30647;SDS011;17683;53.360;9.736;2023-08-08T14:17:44;8.07;;;2.33;;
30647;SDS011;17683;53.360;9.736;2023-08-08T14:20:10;8.68;;;1.75;;
30647;SDS011;17683;53.360;9.736;2023-08-08T14:22:36;5.85;;;1.98;;
30647;SDS011;17683;53.360;9.736;2023-08-08T14:25:02;6.85;;;2.03;;
30647;SDS011;17683;53.360;9.736;2023-08-08T14:27:29;9.48;;;2.30;;
30647;SDS011;17683;53.360;9.736;2023-08-08T14:29:54;7.43;;;2.03;;
30647;SDS011;17683;53.360;9.736;2023-08-08T14:32:20;7.13;;;2.00;;
30647;SDS011;17683;53.360;9.736;2023-08-08T14:34:45;10.65;;;2.10;;
30647;SDS011;17683;53.360;9.736;2023-08-08T14:37:11;6.32;;;2.10;;
30647;SDS011;17683;53.360;9.736;2023-08-08T14:39:37;6.60;;;1.95;;
30647;SDS011;17683;53.360;9.736;2023-08-08T14:42:03;4.95;;;2.00;;
30647;SDS011;17683;53.360;9.736;2023-08-08T14:44:29;11.45;;;2.20;;